TAF Text Data
IDs:
Format:
Raw Decoded Include METAR

Data at: 2121 UTC 31 Jan 2023

Region: TOP
KATL 312000Z 3120/0124 27008KT P6SM SCT008 BKN010
  FM010600 31005KT 4SM BR VCSH OVC004
  PROB30 0106/0110 2SM -SHRA BR OVC003
  FM011400 32006KT P6SM BKN008
  FM011700 32006KT P6SM BKN015


KBOS 312113Z 3121/0124 34010G18KT P6SM SCT050
  FM010000 34010KT P6SM SCT070
  FM010400 35010KT P6SM BKN110
  FM011400 32010KT P6SM FEW110
  FM012200 29010KT P6SM SCT120


KBWI 312101Z 3121/0124 01006KT 6SM -DZ FEW028 OVC035
  FM312300 02008KT P6SM SCT025 OVC035
  FM010300 36004KT P6SM OVC030
  FM011100 34008G16KT P6SM SCT020 OVC035
  FM012000 35007KT P6SM BKN050


KCLE 312045Z 3121/0124 31005KT P6SM BKN035
  FM010700 25007KT P6SM SCT025


KCLT 312005Z 3120/0124 23006KT P6SM BKN009 OVC015
  TEMPO 3120/3122 SCT009 OVC015
  FM312200 22005KT P6SM OVC012
  FM010200 21003KT P6SM VCSH OVC007
  FM010600 32004KT 4SM -RA BR OVC003
  FM011300 04007KT 5SM BR OVC006


KCVG 312100Z 3121/0124 01005KT P6SM BKN040
  FM010800 36005KT P6SM SCT250


KDCA 312101Z 3121/0124 02005KT 6SM -DZ BR BKN013 OVC021
  FM312300 35006KT P6SM OVC021
  FM010300 03003KT P6SM SCT020 OVC035
  FM011100 35008G16KT P6SM BKN020 OVC035
  FM011500 34007KT P6SM SCT130
  FM012300 35006KT P6SM FEW250


KDEN 312101Z 3121/0124 12005KT P6SM SKC
  FM010200 18009KT P6SM SKC
  FM010800 21007KT P6SM SKC


KDFW 312050Z 3121/0124 35013KT P6SM -FZDZ OVC012
  TEMPO 3121/3123 3SM -FZDZ OVC008
  FM010000 36008KT P6SM OVC025
  FM011500 02006KT P6SM -FZRA OVC015


KDTW 312039Z 3121/0124 26006KT P6SM SCT035 SCT120
  TEMPO 3121/3124 26007KT P6SM BKN035
  FM010100 23005KT P6SM SCT040 SCT120
  FM010500 26005KT P6SM SKC
  FM011400 24010KT P6SM SKC


KEWR 312032Z 3121/0124 33009KT P6SM FEW025 BKN070
  TEMPO 3121/3122 6SM -SN BKN025
  FM010100 36007KT P6SM SCT050 BKN070
  TEMPO 0106/0110 3SM -SN BKN025
  FM011300 33008KT P6SM SCT035 BKN250
  FM011700 30012KT P6SM SCT250


KFLL 312057Z 3121/0124 13010KT P6SM SCT025 BKN050
  FM010000 12006KT P6SM FEW030
  FM011500 14008KT P6SM SCT050


KIAD 312101Z 3121/0124 05004KT 3SM -DZ BR OVC009
  FM010000 01004KT P6SM OVC015
  FM010500 35008KT P6SM SCT020 OVC035
  FM011300 35008G16KT P6SM SCT020 OVC035
  FM012200 36005KT P6SM FEW250


KIAH 311720Z 3118/0124 01010KT 3SM BR VCSH OVC003
  FM312000 36010KT 5SM BR VCSH OVC006
  FM010600 36010KT 4SM BR VCSH OVC003
  FM011600 03011KT 3SM SHRA BR OVC005


KJFK 312032Z 3121/0124 35008KT P6SM FEW025 BKN060
  TEMPO 3121/3122 6SM -SN BKN025
  FM010100 02006KT P6SM SCT050 BKN060
  TEMPO 0107/0111 3SM -SN BKN025
  FM011300 33010KT P6SM SCT035 BKN250
  FM011700 30011KT P6SM SCT250


KLAS 312101Z 3121/0124 04010KT P6SM SKC
  FM010100 36007KT P6SM SKC
  FM010500 30006KT P6SM SKC
  FM011200 25006KT P6SM SKC


KLAX 312057Z 3121/0124 21009KT P6SM SKC
  FM010400 VRB03KT P6SM SKC
  FM010900 08005KT P6SM SKC
  FM012100 26008KT P6SM SKC


KLGA 312032Z 3121/0124 33010KT P6SM SCT035 BKN060
  TEMPO 3121/3122 6SM -SN BKN025
  FM010100 02008KT P6SM SCT050 BKN070
  TEMPO 0107/0111 3SM -SN BKN025
  FM011300 34009KT P6SM SCT035 BKN250
  FM011700 31012KT P6SM SCT250


KMCO 312057Z 3121/0124 19003KT P6SM SCT050
  TEMPO 0110/0113 3SM BR SCT010
  FM011400 24005KT P6SM SCT030
  FM011700 24008KT P6SM SCT040 SCT120


KMDW 312058Z 3121/0124 26007KT P6SM FEW100
  FM011700 22011G18KT P6SM SKC


KMEM 312031Z 3121/0124 02010KT 3SM -FZRAPL BR OVC005
  FM010000 03010KT 3SM FZRA BR OVC004
  FM010700 03008KT 5SM BR OVC007
  FM011500 02008KT P6SM SCT007 OVC015


KMIA 312057Z 3121/0124 13008KT P6SM SCT025 BKN050
  FM010000 12006KT P6SM FEW030
  FM011500 14008KT P6SM SCT050


KMSP 312058Z 3121/0124 23009KT P6SM SCT045
  FM312300 19005KT P6SM SCT120


KORD 312058Z 3121/0124 26007KT P6SM FEW100
  FM011700 22011G18KT P6SM SKC


KPDX 312049Z 3121/0118 00000KT P6SM BKN200

KPHL 312037Z 3121/0124 35008KT 6SM -SNRA BKN025
  FM312130 33009KT P6SM OVC050
  FM010100 VRB03KT P6SM OVC050
  FM010700 36003KT P6SM -SN OVC025
  FM011200 36005KT P6SM OVC040
  FM011600 33009KT P6SM BKN250
  FM011900 30010KT P6SM SKC


KPHX 312112Z 3121/0124 33005KT P6SM FEW050 SCT100 BKN200
  FM312200 27005KT P6SM FEW060 SCT100 BKN200
  FM010800 VRB04KT P6SM SCT100


KPIT 312057Z 3121/0124 35005KT P6SM BKN035
  FM010300 31004KT P6SM OVC025
  FM011000 32005KT P6SM SCT025
  FM011600 29004KT P6SM SKC


KSAN 312046Z 3121/0124 30008KT P6SM SKC
  FM010100 VRB04KT P6SM SKC
  FM012100 30008KT P6SM SKC


KSEA 312056Z 3121/0124 00000KT P6SM FEW150 BKN200
  FM010300 14004KT P6SM OVC120
  FM011000 14005KT P6SM OVC100
  FM011700 18003KT P6SM OVC250


KSFO 312100Z 3121/0124 VRB05KT P6SM SKC
  FM010000 29010KT P6SM FEW250
  FM010600 VRB04KT P6SM SCT250
  FM012200 30006KT P6SM SCT250


KSLC 312040Z 3121/0124 34005KT P6SM FEW100
  FM010400 15005KT P6SM FEW080 SCT250
  FM011900 33005KT P6SM FEW200


KSTL 312112Z 3121/0124 34008KT P6SM OVC150
  FM010000 VRB04KT P6SM BKN250


KTPA 312103Z 3121/0124 25006KT P6SM FEW050 SCT250
  FM010200 VRB02KT 6SM BR BKN025
  FM010600 VRB02KT 2SM BR BKN007
  FM011500 21005KT P6SM BKN050 BKN250
  FM011800 29007KT P6SM SCT250